sensor_id;sensor_type;location;lat;lon;timestamp;P1;durP1;ratioP1;P2;durP2;ratioP2
7557;SDS011;3820;51.098;13.716;2023-06-19T00:01:39;10.23;;;7.13;;
7557;SDS011;3820;51.098;13.716;2023-06-19T00:04:06;10.57;;;7.43;;
7557;SDS011;3820;51.098;13.716;2023-06-19T00:06:33;10.43;;;6.80;;
7557;SDS011;3820;51.098;13.716;2023-06-19T00:09:00;8.98;;;6.82;;
7557;SDS011;3820;51.098;13.716;2023-06-19T00:11:26;9.50;;;6.75;;
7557;SDS011;3820;51.098;13.716;2023-06-19T00:13:53;9.48;;;7.20;;
7557;SDS011;3820;51.098;13.716;2023-06-19T00:16:20;10.05;;;6.82;;
7557;SDS011;3820;51.098;13.716;2023-06-19T00:18:46;11.18;;;7.38;;
7557;SDS011;3820;51.098;13.716;2023-06-19T00:21:13;11.02;;;7.90;;
7557;SDS011;3820;51.098;13.716;2023-06-19T00:23:39;12.00;;;7.15;;
7557;SDS011;3820;51.098;13.716;2023-06-19T00:26:06;11.45;;;7.28;;
7557;SDS011;3820;51.098;13.716;2023-06-19T00:28:33;11.80;;;7.03;;
7557;SDS011;3820;51.098;13.716;2023-06-19T00:30:59;9.60;;;7.13;;
7557;SDS011;3820;51.098;13.716;2023-06-19T00:33:26;10.93;;;7.47;;
7557;SDS011;3820;51.098;13.716;2023-06-19T00:35:52;9.60;;;7.03;;
7557;SDS011;3820;51.098;13.716;2023-06-19T00:38:20;9.23;;;6.90;;
7557;SDS011;3820;51.098;13.716;2023-06-19T00:40:47;9.32;;;6.65;;
7557;SDS011;3820;51.098;13.716;2023-06-19T00:43:14;10.70;;;7.35;;
7557;SDS011;3820;51.098;13.716;2023-06-19T00:45:40;8.93;;;7.15;;
7557;SDS011;3820;51.098;13.716;2023-06-19T00:48:07;9.73;;;7.03;;
7557;SDS011;3820;51.098;13.716;2023-06-19T00:50:33;12.27;;;7.47;;
7557;SDS011;3820;51.098;13.716;2023-06-19T00:53:00;9.15;;;7.13;;
7557;SDS011;3820;51.098;13.716;2023-06-19T00:55:29;10.77;;;6.65;;
7557;SDS011;3820;51.098;13.716;2023-06-19T00:57:57;8.70;;;6.93;;
7557;SDS011;3820;51.098;13.716;2023-06-19T01:00:25;11.10;;;7.72;;
7557;SDS011;3820;51.098;13.716;2023-06-19T01:02:51;11.45;;;7.85;;
7557;SDS011;3820;51.098;13.716;2023-06-19T01:05:18;11.75;;;7.85;;
7557;SDS011;3820;51.098;13.716;2023-06-19T01:07:48;10.95;;;7.28;;
7557;SDS011;3820;51.098;13.716;2023-06-19T01:10:21;9.70;;;6.97;;
7557;SDS011;3820;51.098;13.716;2023-06-19T01:12:56;10.10;;;7.10;;
7557;SDS011;3820;51.098;13.716;2023-06-19T01:15:35;10.38;;;7.22;;
7557;SDS011;3820;51.098;13.716;2023-06-19T01:18:02;8.90;;;6.68;;
7557;SDS011;3820;51.098;13.716;2023-06-19T01:20:29;10.25;;;7.57;;
7557;SDS011;3820;51.098;13.716;2023-06-19T01:23:04;11.18;;;7.47;;
7557;SDS011;3820;51.098;13.716;2023-06-19T01:25:33;10.00;;;7.03;;
7557;SDS011;3820;51.098;13.716;2023-06-19T01:27:59;10.10;;;7.43;;
7557;SDS011;3820;51.098;13.716;2023-06-19T01:30:26;10.30;;;7.10;;
7557;SDS011;3820;51.098;13.716;2023-06-19T01:35:46;10.00;;;7.47;;
7557;SDS011;3820;51.098;13.716;2023-06-19T01:38:14;10.30;;;7.70;;
7557;SDS011;3820;51.098;13.716;2023-06-19T01:40:42;12.68;;;8.50;;
7557;SDS011;3820;51.098;13.716;2023-06-19T01:43:10;11.65;;;7.20;;
7557;SDS011;3820;51.098;13.716;2023-06-19T01:45:37;10.80;;;7.22;;
7557;SDS011;3820;51.098;13.716;2023-06-19T01:48:04;10.65;;;7.75;;
7557;SDS011;3820;51.098;13.716;2023-06-19T01:50:30;10.05;;;7.32;;
7557;SDS011;3820;51.098;13.716;2023-06-19T01:52:57;14.05;;;8.00;;
7557;SDS011;3820;51.098;13.716;2023-06-19T01:55:24;10.70;;;7.50;;
7557;SDS011;3820;51.098;13.716;2023-06-19T01:57:51;12.80;;;7.97;;
7557;SDS011;3820;51.098;13.716;2023-06-19T02:00:18;10.50;;;7.82;;
7557;SDS011;3820;51.098;13.716;2023-06-19T02:02:45;10.23;;;7.32;;
7557;SDS011;3820;51.098;13.716;2023-06-19T02:05:11;10.00;;;7.43;;
7557;SDS011;3820;51.098;13.716;2023-06-19T02:07:39;11.38;;;7.97;;
7557;SDS011;3820;51.098;13.716;2023-06-19T02:10:06;10.88;;;7.82;;
7557;SDS011;3820;51.098;13.716;2023-06-19T02:12:34;10.77;;;7.95;;
7557;SDS011;3820;51.098;13.716;2023-06-19T02:15:01;11.25;;;7.68;;
7557;SDS011;3820;51.098;13.716;2023-06-19T02:17:28;9.82;;;7.63;;
7557;SDS011;3820;51.098;13.716;2023-06-19T02:19:55;11.95;;;8.00;;
7557;SDS011;3820;51.098;13.716;2023-06-19T02:22:21;11.82;;;7.78;;
7557;SDS011;3820;51.098;13.716;2023-06-19T02:24:48;11.25;;;7.57;;
7557;SDS011;3820;51.098;13.716;2023-06-19T02:27:14;11.80;;;7.82;;
7557;SDS011;3820;51.098;13.716;2023-06-19T02:29:42;9.93;;;7.38;;
7557;SDS011;3820;51.098;13.716;2023-06-19T02:32:08;9.95;;;8.10;;
7557;SDS011;3820;51.098;13.716;2023-06-19T02:34:35;10.50;;;8.07;;
7557;SDS011;3820;51.098;13.716;2023-06-19T02:37:02;11.00;;;8.07;;
7557;SDS011;3820;51.098;13.716;2023-06-19T02:39:29;12.27;;;7.63;;
7557;SDS011;3820;51.098;13.716;2023-06-19T02:41:56;11.57;;;7.53;;
7557;SDS011;3820;51.098;13.716;2023-06-19T02:44:22;10.80;;;7.95;;
7557;SDS011;3820;51.098;13.716;2023-06-19T02:46:49;11.85;;;7.47;;
7557;SDS011;3820;51.098;13.716;2023-06-19T02:49:15;12.23;;;7.88;;
7557;SDS011;3820;51.098;13.716;2023-06-19T02:51:42;11.50;;;7.65;;
7557;SDS011;3820;51.098;13.716;2023-06-19T02:54:09;11.50;;;7.90;;
7557;SDS011;3820;51.098;13.716;2023-06-19T02:56:36;12.07;;;7.22;;
7557;SDS011;3820;51.098;13.716;2023-06-19T02:59:03;10.85;;;7.30;;
7557;SDS011;3820;51.098;13.716;2023-06-19T03:01:30;11.20;;;7.72;;
7557;SDS011;3820;51.098;13.716;2023-06-19T03:03:57;9.80;;;7.80;;
7557;SDS011;3820;51.098;13.716;2023-06-19T03:06:24;10.73;;;7.53;;
7557;SDS011;3820;51.098;13.716;2023-06-19T03:08:52;10.23;;;7.10;;
7557;SDS011;3820;51.098;13.716;2023-06-19T03:11:19;11.23;;;7.60;;
7557;SDS011;3820;51.098;13.716;2023-06-19T03:13:52;10.75;;;7.75;;
7557;SDS011;3820;51.098;13.716;2023-06-19T03:16:19;11.80;;;7.95;;
7557;SDS011;3820;51.098;13.716;2023-06-19T03:18:46;10.07;;;7.57;;
7557;SDS011;3820;51.098;13.716;2023-06-19T03:21:18;12.07;;;8.25;;
7557;SDS011;3820;51.098;13.716;2023-06-19T03:23:46;10.73;;;7.05;;
7557;SDS011;3820;51.098;13.716;2023-06-19T03:26:13;10.20;;;7.13;;
7557;SDS011;3820;51.098;13.716;2023-06-19T03:28:39;9.35;;;6.72;;
7557;SDS011;3820;51.098;13.716;2023-06-19T03:31:06;11.30;;;7.82;;
7557;SDS011;3820;51.098;13.716;2023-06-19T03:33:32;9.98;;;7.50;;
7557;SDS011;3820;51.098;13.716;2023-06-19T03:35:59;10.80;;;7.63;;
7557;SDS011;3820;51.098;13.716;2023-06-19T03:38:25;9.25;;;6.95;;
7557;SDS011;3820;51.098;13.716;2023-06-19T03:40:52;11.38;;;7.18;;
7557;SDS011;3820;51.098;13.716;2023-06-19T03:43:18;13.05;;;7.63;;
7557;SDS011;3820;51.098;13.716;2023-06-19T03:45:45;9.38;;;7.30;;
7557;SDS011;3820;51.098;13.716;2023-06-19T03:48:12;10.93;;;7.53;;
7557;SDS011;3820;51.098;13.716;2023-06-19T03:50:38;11.13;;;7.97;;
7557;SDS011;3820;51.098;13.716;2023-06-19T03:53:05;9.98;;;7.07;;
7557;SDS011;3820;51.098;13.716;2023-06-19T03:55:32;10.43;;;7.15;;
7557;SDS011;3820;51.098;13.716;2023-06-19T03:57:58;9.68;;;7.55;;
7557;SDS011;3820;51.098;13.716;2023-06-19T04:00:25;10.27;;;7.78;;
7557;SDS011;3820;51.098;13.716;2023-06-19T04:02:52;10.95;;;7.30;;
7557;SDS011;3820;51.098;13.716;2023-06-19T04:05:19;9.88;;;7.28;;
7557;SDS011;3820;51.098;13.716;2023-06-19T04:07:48;9.27;;;7.07;;
7557;SDS011;3820;51.098;13.716;2023-06-19T04:10:15;9.50;;;7.03;;
7557;SDS011;3820;51.098;13.716;2023-06-19T04:12:42;9.25;;;7.07;;
7557;SDS011;3820;51.098;13.716;2023-06-19T04:15:08;10.07;;;7.25;;
7557;SDS011;3820;51.098;13.716;2023-06-19T04:17:35;10.55;;;7.57;;
7557;SDS011;3820;51.098;13.716;2023-06-19T04:20:03;9.38;;;7.10;;
7557;SDS011;3820;51.098;13.716;2023-06-19T04:22:40;9.82;;;7.28;;
7557;SDS011;3820;51.098;13.716;2023-06-19T04:25:07;12.73;;;7.93;;
7557;SDS011;3820;51.098;13.716;2023-06-19T04:27:34;10.05;;;7.68;;
7557;SDS011;3820;51.098;13.716;2023-06-19T04:30:04;8.95;;;7.00;;
7557;SDS011;3820;51.098;13.716;2023-06-19T04:32:33;9.25;;;6.90;;
7557;SDS011;3820;51.098;13.716;2023-06-19T04:35:01;11.77;;;7.70;;
7557;SDS011;3820;51.098;13.716;2023-06-19T04:37:28;9.70;;;6.82;;
7557;SDS011;3820;51.098;13.716;2023-06-19T04:39:55;9.93;;;7.07;;
7557;SDS011;3820;51.098;13.716;2023-06-19T04:42:22;9.63;;;7.20;;
7557;SDS011;3820;51.098;13.716;2023-06-19T04:44:50;10.25;;;7.22;;
7557;SDS011;3820;51.098;13.716;2023-06-19T04:47:19;9.57;;;6.95;;
7557;SDS011;3820;51.098;13.716;2023-06-19T04:49:48;11.52;;;7.05;;
7557;SDS011;3820;51.098;13.716;2023-06-19T04:52:14;10.25;;;7.63;;
7557;SDS011;3820;51.098;13.716;2023-06-19T04:54:41;10.73;;;7.20;;
7557;SDS011;3820;51.098;13.716;2023-06-19T04:57:08;10.75;;;7.05;;
7557;SDS011;3820;51.098;13.716;2023-06-19T04:59:34;9.60;;;7.15;;
7557;SDS011;3820;51.098;13.716;2023-06-19T05:02:01;11.38;;;7.88;;
7557;SDS011;3820;51.098;13.716;2023-06-19T05:04:27;11.15;;;8.43;;
7557;SDS011;3820;51.098;13.716;2023-06-19T05:06:59;9.07;;;6.95;;
7557;SDS011;3820;51.098;13.716;2023-06-19T05:09:25;9.68;;;6.85;;
7557;SDS011;3820;51.098;13.716;2023-06-19T05:11:52;8.93;;;7.35;;
7557;SDS011;3820;51.098;13.716;2023-06-19T05:14:18;9.45;;;7.18;;
7557;SDS011;3820;51.098;13.716;2023-06-19T05:16:45;9.65;;;6.88;;
7557;SDS011;3820;51.098;13.716;2023-06-19T05:19:12;10.75;;;7.57;;
7557;SDS011;3820;51.098;13.716;2023-06-19T05:21:38;9.55;;;6.80;;
7557;SDS011;3820;51.098;13.716;2023-06-19T05:24:05;10.18;;;7.15;;
7557;SDS011;3820;51.098;13.716;2023-06-19T05:26:32;10.50;;;6.78;;
7557;SDS011;3820;51.098;13.716;2023-06-19T05:28:58;9.40;;;6.60;;
7557;SDS011;3820;51.098;13.716;2023-06-19T05:31:26;13.10;;;8.23;;
7557;SDS011;3820;51.098;13.716;2023-06-19T05:33:54;8.73;;;6.97;;
7557;SDS011;3820;51.098;13.716;2023-06-19T05:36:20;10.88;;;7.65;;
7557;SDS011;3820;51.098;13.716;2023-06-19T05:38:47;9.23;;;6.82;;
7557;SDS011;3820;51.098;13.716;2023-06-19T05:41:13;11.20;;;7.38;;
7557;SDS011;3820;51.098;13.716;2023-06-19T05:43:40;9.65;;;6.80;;
7557;SDS011;3820;51.098;13.716;2023-06-19T05:46:07;9.68;;;7.30;;
7557;SDS011;3820;51.098;13.716;2023-06-19T05:48:33;8.75;;;6.75;;
7557;SDS011;3820;51.098;13.716;2023-06-19T05:51:00;9.40;;;6.70;;
7557;SDS011;3820;51.098;13.716;2023-06-19T05:53:26;8.23;;;6.43;;
7557;SDS011;3820;51.098;13.716;2023-06-19T05:55:53;9.35;;;6.88;;
7557;SDS011;3820;51.098;13.716;2023-06-19T05:58:20;9.88;;;7.20;;
7557;SDS011;3820;51.098;13.716;2023-06-19T06:00:47;10.15;;;7.05;;
7557;SDS011;3820;51.098;13.716;2023-06-19T06:03:14;11.57;;;7.35;;
7557;SDS011;3820;51.098;13.716;2023-06-19T06:05:40;11.00;;;7.20;;
7557;SDS011;3820;51.098;13.716;2023-06-19T06:08:08;9.23;;;6.70;;
7557;SDS011;3820;51.098;13.716;2023-06-19T06:10:36;9.30;;;6.95;;
7557;SDS011;3820;51.098;13.716;2023-06-19T06:13:02;7.60;;;6.30;;
7557;SDS011;3820;51.098;13.716;2023-06-19T06:15:29;10.80;;;7.32;;
7557;SDS011;3820;51.098;13.716;2023-06-19T06:17:55;9.93;;;7.13;;
7557;SDS011;3820;51.098;13.716;2023-06-19T06:20:22;11.10;;;7.25;;
7557;SDS011;3820;51.098;13.716;2023-06-19T06:22:49;10.15;;;7.55;;
7557;SDS011;3820;51.098;13.716;2023-06-19T06:25:15;10.18;;;6.65;;
7557;SDS011;3820;51.098;13.716;2023-06-19T06:27:42;9.43;;;6.60;;
7557;SDS011;3820;51.098;13.716;2023-06-19T06:30:09;9.60;;;7.10;;
7557;SDS011;3820;51.098;13.716;2023-06-19T06:32:38;10.23;;;6.90;;
7557;SDS011;3820;51.098;13.716;2023-06-19T06:35:05;9.70;;;7.38;;
7557;SDS011;3820;51.098;13.716;2023-06-19T06:37:32;9.52;;;7.10;;
7557;SDS011;3820;51.098;13.716;2023-06-19T06:39:58;10.13;;;6.90;;
7557;SDS011;3820;51.098;13.716;2023-06-19T06:42:25;9.80;;;7.13;;
7557;SDS011;3820;51.098;13.716;2023-06-19T06:44:51;9.25;;;6.95;;
7557;SDS011;3820;51.098;13.716;2023-06-19T06:47:18;11.25;;;6.75;;
7557;SDS011;3820;51.098;13.716;2023-06-19T06:49:44;8.65;;;6.82;;
7557;SDS011;3820;51.098;13.716;2023-06-19T06:52:11;8.05;;;6.15;;
7557;SDS011;3820;51.098;13.716;2023-06-19T06:54:38;9.35;;;6.30;;
7557;SDS011;3820;51.098;13.716;2023-06-19T06:57:04;8.80;;;6.88;;
7557;SDS011;3820;51.098;13.716;2023-06-19T06:59:31;8.05;;;6.88;;
7557;SDS011;3820;51.098;13.716;2023-06-19T07:01:59;10.48;;;7.60;;
7557;SDS011;3820;51.098;13.716;2023-06-19T07:04:26;9.00;;;7.15;;
7557;SDS011;3820;51.098;13.716;2023-06-19T07:06:52;8.93;;;6.85;;
7557;SDS011;3820;51.098;13.716;2023-06-19T07:09:19;11.77;;;6.95;;
7557;SDS011;3820;51.098;13.716;2023-06-19T07:11:48;9.73;;;6.55;;
7557;SDS011;3820;51.098;13.716;2023-06-19T07:14:18;10.32;;;7.00;;
7557;SDS011;3820;51.098;13.716;2023-06-19T07:16:45;7.72;;;5.93;;
7557;SDS011;3820;51.098;13.716;2023-06-19T07:19:12;8.65;;;6.28;;
7557;SDS011;3820;51.098;13.716;2023-06-19T07:21:40;9.90;;;6.70;;
7557;SDS011;3820;51.098;13.716;2023-06-19T07:24:06;9.05;;;6.60;;
7557;SDS011;3820;51.098;13.716;2023-06-19T07:26:33;8.30;;;6.47;;
7557;SDS011;3820;51.098;13.716;2023-06-19T07:28:59;9.95;;;6.93;;
7557;SDS011;3820;51.098;13.716;2023-06-19T07:31:26;9.98;;;6.57;;
7557;SDS011;3820;51.098;13.716;2023-06-19T07:33:53;10.20;;;6.43;;
7557;SDS011;3820;51.098;13.716;2023-06-19T07:36:19;10.50;;;7.10;;
7557;SDS011;3820;51.098;13.716;2023-06-19T07:38:46;10.15;;;6.43;;
7557;SDS011;3820;51.098;13.716;2023-06-19T07:41:12;10.38;;;6.70;;
7557;SDS011;3820;51.098;13.716;2023-06-19T07:43:39;7.93;;;6.05;;
7557;SDS011;3820;51.098;13.716;2023-06-19T07:46:05;8.18;;;6.38;;
7557;SDS011;3820;51.098;13.716;2023-06-19T07:48:32;8.98;;;6.10;;
7557;SDS011;3820;51.098;13.716;2023-06-19T07:50:59;8.23;;;6.28;;
7557;SDS011;3820;51.098;13.716;2023-06-19T07:53:25;6.28;;;5.45;;
7557;SDS011;3820;51.098;13.716;2023-06-19T07:55:52;7.38;;;5.70;;
7557;SDS011;3820;51.098;13.716;2023-06-19T07:58:19;8.65;;;5.40;;
7557;SDS011;3820;51.098;13.716;2023-06-19T08:00:46;8.10;;;5.72;;
7557;SDS011;3820;51.098;13.716;2023-06-19T08:03:12;7.53;;;5.43;;
7557;SDS011;3820;51.098;13.716;2023-06-19T08:05:39;6.68;;;5.30;;
7557;SDS011;3820;51.098;13.716;2023-06-19T08:08:06;8.40;;;5.60;;
7557;SDS011;3820;51.098;13.716;2023-06-19T08:10:33;7.60;;;5.20;;
7557;SDS011;3820;51.098;13.716;2023-06-19T08:13:00;7.03;;;5.50;;
7557;SDS011;3820;51.098;13.716;2023-06-19T08:15:26;7.35;;;5.50;;
7557;SDS011;3820;51.098;13.716;2023-06-19T08:17:53;6.88;;;5.70;;
7557;SDS011;3820;51.098;13.716;2023-06-19T08:20:20;6.47;;;5.43;;
7557;SDS011;3820;51.098;13.716;2023-06-19T08:22:47;7.40;;;5.57;;
7557;SDS011;3820;51.098;13.716;2023-06-19T08:25:14;7.60;;;5.75;;
7557;SDS011;3820;51.098;13.716;2023-06-19T08:27:40;7.13;;;5.25;;
7557;SDS011;3820;51.098;13.716;2023-06-19T08:30:07;6.55;;;5.20;;
7557;SDS011;3820;51.098;13.716;2023-06-19T08:32:33;9.27;;;5.68;;
7557;SDS011;3820;51.098;13.716;2023-06-19T08:35:01;11.15;;;5.80;;
7557;SDS011;3820;51.098;13.716;2023-06-19T08:37:28;8.25;;;5.85;;
7557;SDS011;3820;51.098;13.716;2023-06-19T08:39:55;8.25;;;5.35;;
7557;SDS011;3820;51.098;13.716;2023-06-19T08:42:25;7.57;;;5.22;;
7557;SDS011;3820;51.098;13.716;2023-06-19T08:44:53;7.50;;;5.68;;
7557;SDS011;3820;51.098;13.716;2023-06-19T08:47:19;8.43;;;5.88;;
7557;SDS011;3820;51.098;13.716;2023-06-19T08:49:46;7.45;;;5.63;;
7557;SDS011;3820;51.098;13.716;2023-06-19T08:52:13;9.23;;;6.28;;
7557;SDS011;3820;51.098;13.716;2023-06-19T08:54:41;7.30;;;5.57;;
7557;SDS011;3820;51.098;13.716;2023-06-19T08:57:11;6.63;;;5.65;;
7557;SDS011;3820;51.098;13.716;2023-06-19T08:59:38;7.15;;;5.60;;
7557;SDS011;3820;51.098;13.716;2023-06-19T09:02:05;8.75;;;5.95;;
7557;SDS011;3820;51.098;13.716;2023-06-19T09:04:32;8.20;;;5.85;;
7557;SDS011;3820;51.098;13.716;2023-06-19T09:07:03;6.75;;;5.03;;
7557;SDS011;3820;51.098;13.716;2023-06-19T09:09:30;7.32;;;5.45;;
7557;SDS011;3820;51.098;13.716;2023-06-19T09:12:03;7.63;;;5.47;;
7557;SDS011;3820;51.098;13.716;2023-06-19T09:14:43;8.02;;;5.50;;
7557;SDS011;3820;51.098;13.716;2023-06-19T09:17:11;7.40;;;5.43;;
7557;SDS011;3820;51.098;13.716;2023-06-19T09:19:46;6.93;;;5.68;;
7557;SDS011;3820;51.098;13.716;2023-06-19T09:22:15;8.18;;;5.80;;
7557;SDS011;3820;51.098;13.716;2023-06-19T09:24:44;8.05;;;5.82;;
7557;SDS011;3820;51.098;13.716;2023-06-19T09:27:12;7.35;;;5.60;;
7557;SDS011;3820;51.098;13.716;2023-06-19T09:29:46;8.10;;;5.57;;
7557;SDS011;3820;51.098;13.716;2023-06-19T09:32:18;7.07;;;5.25;;
7557;SDS011;3820;51.098;13.716;2023-06-19T09:34:49;7.50;;;5.53;;
7557;SDS011;3820;51.098;13.716;2023-06-19T09:37:24;7.32;;;5.75;;
7557;SDS011;3820;51.098;13.716;2023-06-19T09:39:52;9.00;;;6.55;;
7557;SDS011;3820;51.098;13.716;2023-06-19T09:42:39;7.55;;;5.68;;
7557;SDS011;3820;51.098;13.716;2023-06-19T09:45:07;7.80;;;5.50;;
7557;SDS011;3820;51.098;13.716;2023-06-19T09:47:35;7.47;;;5.90;;
7557;SDS011;3820;51.098;13.716;2023-06-19T09:50:04;8.55;;;6.15;;
7557;SDS011;3820;51.098;13.716;2023-06-19T09:52:31;7.05;;;5.65;;
7557;SDS011;3820;51.098;13.716;2023-06-19T09:55:01;8.65;;;5.93;;
7557;SDS011;3820;51.098;13.716;2023-06-19T09:57:36;10.02;;;5.93;;
7557;SDS011;3820;51.098;13.716;2023-06-19T10:00:05;7.75;;;5.72;;
7557;SDS011;3820;51.098;13.716;2023-06-19T10:02:41;7.55;;;5.32;;
7557;SDS011;3820;51.098;13.716;2023-06-19T10:05:09;7.72;;;6.00;;
7557;SDS011;3820;51.098;13.716;2023-06-19T10:07:42;8.30;;;5.88;;
7557;SDS011;3820;51.098;13.716;2023-06-19T10:10:11;11.25;;;6.00;;
7557;SDS011;3820;51.098;13.716;2023-06-19T10:12:52;8.65;;;6.00;;
7557;SDS011;3820;51.098;13.716;2023-06-19T10:15:23;8.10;;;6.15;;
7557;SDS011;3820;51.098;13.716;2023-06-19T10:17:52;6.45;;;5.60;;
7557;SDS011;3820;51.098;13.716;2023-06-19T10:25:24;8.25;;;6.28;;
7557;SDS011;3820;51.098;13.716;2023-06-19T10:27:54;7.97;;;6.28;;
7557;SDS011;3820;51.098;13.716;2023-06-19T10:30:21;8.60;;;6.32;;
7557;SDS011;3820;51.098;13.716;2023-06-19T10:32:48;7.85;;;5.95;;
7557;SDS011;3820;51.098;13.716;2023-06-19T10:35:15;7.70;;;6.10;;
7557;SDS011;3820;51.098;13.716;2023-06-19T10:37:43;6.88;;;5.82;;
7557;SDS011;3820;51.098;13.716;2023-06-19T10:40:11;7.90;;;6.25;;
7557;SDS011;3820;51.098;13.716;2023-06-19T10:42:39;8.50;;;6.00;;
7557;SDS011;3820;51.098;13.716;2023-06-19T10:45:07;7.20;;;5.70;;
7557;SDS011;3820;51.098;13.716;2023-06-19T10:47:35;8.18;;;6.38;;
7557;SDS011;3820;51.098;13.716;2023-06-19T10:50:02;8.73;;;6.15;;
7557;SDS011;3820;51.098;13.716;2023-06-19T10:52:29;7.82;;;6.10;;
7557;SDS011;3820;51.098;13.716;2023-06-19T10:54:56;8.52;;;6.28;;
7557;SDS011;3820;51.098;13.716;2023-06-19T10:57:30;8.40;;;6.05;;
7557;SDS011;3820;51.098;13.716;2023-06-19T10:59:57;7.40;;;6.10;;
7557;SDS011;3820;51.098;13.716;2023-06-19T11:02:24;7.40;;;5.63;;
7557;SDS011;3820;51.098;13.716;2023-06-19T11:04:52;8.23;;;6.40;;
7557;SDS011;3820;51.098;13.716;2023-06-19T11:07:20;7.82;;;5.80;;
7557;SDS011;3820;51.098;13.716;2023-06-19T11:09:46;7.15;;;6.10;;
7557;SDS011;3820;51.098;13.716;2023-06-19T11:12:18;7.80;;;5.95;;
7557;SDS011;3820;51.098;13.716;2023-06-19T11:14:45;7.50;;;5.70;;
7557;SDS011;3820;51.098;13.716;2023-06-19T11:17:11;7.55;;;6.00;;
7557;SDS011;3820;51.098;13.716;2023-06-19T11:19:38;7.93;;;5.82;;
7557;SDS011;3820;51.098;13.716;2023-06-19T11:22:08;9.02;;;6.03;;
7557;SDS011;3820;51.098;13.716;2023-06-19T11:24:34;7.03;;;5.75;;
7557;SDS011;3820;51.098;13.716;2023-06-19T11:27:01;8.73;;;5.80;;
7557;SDS011;3820;51.098;13.716;2023-06-19T11:29:31;8.00;;;5.85;;
7557;SDS011;3820;51.098;13.716;2023-06-19T11:34:32;7.80;;;6.03;;
7557;SDS011;3820;51.098;13.716;2023-06-19T11:37:00;8.10;;;6.28;;
7557;SDS011;3820;51.098;13.716;2023-06-19T11:39:26;8.52;;;5.90;;
7557;SDS011;3820;51.098;13.716;2023-06-19T11:41:54;7.30;;;5.90;;
7557;SDS011;3820;51.098;13.716;2023-06-19T11:44:20;8.23;;;6.00;;
7557;SDS011;3820;51.098;13.716;2023-06-19T11:46:47;8.15;;;5.38;;
7557;SDS011;3820;51.098;13.716;2023-06-19T11:49:14;8.15;;;6.28;;
7557;SDS011;3820;51.098;13.716;2023-06-19T11:52:04;8.55;;;6.32;;
7557;SDS011;3820;51.098;13.716;2023-06-19T11:54:52;6.85;;;5.78;;
7557;SDS011;3820;51.098;13.716;2023-06-19T11:57:19;7.85;;;6.35;;
7557;SDS011;3820;51.098;13.716;2023-06-19T11:59:45;7.50;;;5.65;;
7557;SDS011;3820;51.098;13.716;2023-06-19T12:02:12;8.40;;;6.13;;
7557;SDS011;3820;51.098;13.716;2023-06-19T12:04:39;7.00;;;6.07;;
7557;SDS011;3820;51.098;13.716;2023-06-19T12:07:05;8.60;;;6.15;;
7557;SDS011;3820;51.098;13.716;2023-06-19T12:09:33;7.72;;;6.18;;
7557;SDS011;3820;51.098;13.716;2023-06-19T12:12:00;7.05;;;5.72;;
7557;SDS011;3820;51.098;13.716;2023-06-19T12:14:27;8.02;;;5.60;;
7557;SDS011;3820;51.098;13.716;2023-06-19T12:16:54;7.68;;;5.55;;
7557;SDS011;3820;51.098;13.716;2023-06-19T12:19:21;6.95;;;5.40;;
7557;SDS011;3820;51.098;13.716;2023-06-19T12:21:47;7.15;;;5.53;;
7557;SDS011;3820;51.098;13.716;2023-06-19T12:24:14;6.65;;;5.32;;
7557;SDS011;3820;51.098;13.716;2023-06-19T12:26:40;6.43;;;5.07;;
7557;SDS011;3820;51.098;13.716;2023-06-19T12:29:07;6.22;;;5.28;;
7557;SDS011;3820;51.098;13.716;2023-06-19T12:31:34;6.35;;;5.20;;
7557;SDS011;3820;51.098;13.716;2023-06-19T12:34:03;6.65;;;5.25;;
7557;SDS011;3820;51.098;13.716;2023-06-19T12:36:50;6.45;;;5.13;;
7557;SDS011;3820;51.098;13.716;2023-06-19T12:39:16;6.03;;;4.75;;
7557;SDS011;3820;51.098;13.716;2023-06-19T12:41:43;6.53;;;5.10;;
7557;SDS011;3820;51.098;13.716;2023-06-19T12:44:09;6.47;;;5.30;;
7557;SDS011;3820;51.098;13.716;2023-06-19T12:46:36;7.68;;;5.38;;
7557;SDS011;3820;51.098;13.716;2023-06-19T12:49:03;6.55;;;5.68;;
7557;SDS011;3820;51.098;13.716;2023-06-19T12:51:30;6.15;;;5.25;;
7557;SDS011;3820;51.098;13.716;2023-06-19T12:53:56;6.43;;;5.13;;
7557;SDS011;3820;51.098;13.716;2023-06-19T12:56:23;7.43;;;5.50;;
7557;SDS011;3820;51.098;13.716;2023-06-19T12:58:49;5.32;;;4.60;;
7557;SDS011;3820;51.098;13.716;2023-06-19T13:01:16;6.10;;;5.10;;
7557;SDS011;3820;51.098;13.716;2023-06-19T13:03:42;5.47;;;4.60;;
7557;SDS011;3820;51.098;13.716;2023-06-19T13:06:09;5.88;;;4.90;;
7557;SDS011;3820;51.098;13.716;2023-06-19T13:08:36;6.50;;;4.85;;
7557;SDS011;3820;51.098;13.716;2023-06-19T13:11:03;6.20;;;5.28;;
7557;SDS011;3820;51.098;13.716;2023-06-19T13:13:29;5.78;;;4.82;;
7557;SDS011;3820;51.098;13.716;2023-06-19T13:15:56;6.00;;;4.93;;
7557;SDS011;3820;51.098;13.716;2023-06-19T13:18:22;6.25;;;4.88;;
7557;SDS011;3820;51.098;13.716;2023-06-19T13:20:49;6.00;;;4.85;;
7557;SDS011;3820;51.098;13.716;2023-06-19T13:23:16;6.03;;;4.93;;
7557;SDS011;3820;51.098;13.716;2023-06-19T13:25:43;6.70;;;5.20;;
7557;SDS011;3820;51.098;13.716;2023-06-19T13:28:10;6.90;;;5.18;;
7557;SDS011;3820;51.098;13.716;2023-06-19T13:30:37;5.82;;;5.15;;
7557;SDS011;3820;51.098;13.716;2023-06-19T13:33:03;6.60;;;5.25;;
7557;SDS011;3820;51.098;13.716;2023-06-19T13:35:31;6.57;;;5.07;;
7557;SDS011;3820;51.098;13.716;2023-06-19T13:37:57;7.32;;;5.47;;
7557;SDS011;3820;51.098;13.716;2023-06-19T13:40:24;9.32;;;5.90;;
7557;SDS011;3820;51.098;13.716;2023-06-19T13:42:51;7.38;;;5.60;;
7557;SDS011;3820;51.098;13.716;2023-06-19T13:45:17;7.05;;;5.70;;
7557;SDS011;3820;51.098;13.716;2023-06-19T13:47:44;7.95;;;5.85;;
7557;SDS011;3820;51.098;13.716;2023-06-19T13:50:10;8.18;;;5.93;;
7557;SDS011;3820;51.098;13.716;2023-06-19T13:52:40;7.45;;;6.20;;
7557;SDS011;3820;51.098;13.716;2023-06-19T13:55:07;7.78;;;5.88;;
7557;SDS011;3820;51.098;13.716;2023-06-19T13:57:34;8.63;;;6.15;;
7557;SDS011;3820;51.098;13.716;2023-06-19T14:00:01;10.18;;;6.70;;
7557;SDS011;3820;51.098;13.716;2023-06-19T14:02:28;9.07;;;6.38;;
7557;SDS011;3820;51.098;13.716;2023-06-19T14:04:54;8.98;;;6.55;;
7557;SDS011;3820;51.098;13.716;2023-06-19T14:07:22;7.68;;;6.10;;
7557;SDS011;3820;51.098;13.716;2023-06-19T14:09:49;8.88;;;6.53;;
7557;SDS011;3820;51.098;13.716;2023-06-19T14:12:16;10.48;;;6.85;;
7557;SDS011;3820;51.098;13.716;2023-06-19T14:14:43;8.10;;;6.38;;
7557;SDS011;3820;51.098;13.716;2023-06-19T14:17:09;8.20;;;6.72;;
7557;SDS011;3820;51.098;13.716;2023-06-19T14:19:36;8.07;;;6.68;;
7557;SDS011;3820;51.098;13.716;2023-06-19T14:22:03;11.68;;;7.68;;
7557;SDS011;3820;51.098;13.716;2023-06-19T14:24:30;7.38;;;6.47;;
7557;SDS011;3820;51.098;13.716;2023-06-19T14:26:56;8.23;;;6.82;;
7557;SDS011;3820;51.098;13.716;2023-06-19T14:29:23;8.63;;;6.78;;
7557;SDS011;3820;51.098;13.716;2023-06-19T14:31:50;9.07;;;7.13;;
7557;SDS011;3820;51.098;13.716;2023-06-19T14:34:21;9.50;;;7.05;;
7557;SDS011;3820;51.098;13.716;2023-06-19T14:36:47;9.90;;;6.85;;
7557;SDS011;3820;51.098;13.716;2023-06-19T14:39:14;8.93;;;7.07;;
7557;SDS011;3820;51.098;13.716;2023-06-19T14:41:41;8.50;;;6.43;;
7557;SDS011;3820;51.098;13.716;2023-06-19T14:44:08;9.80;;;6.97;;
7557;SDS011;3820;51.098;13.716;2023-06-19T14:46:35;9.48;;;7.03;;
7557;SDS011;3820;51.098;13.716;2023-06-19T14:49:06;10.18;;;6.65;;
7557;SDS011;3820;51.098;13.716;2023-06-19T14:51:34;7.90;;;6.78;;
7557;SDS011;3820;51.098;13.716;2023-06-19T14:54:00;8.00;;;6.60;;
7557;SDS011;3820;51.098;13.716;2023-06-19T14:56:27;9.88;;;6.93;;
7557;SDS011;3820;51.098;13.716;2023-06-19T14:58:54;8.57;;;6.93;;
7557;SDS011;3820;51.098;13.716;2023-06-19T15:01:21;9.95;;;7.18;;
7557;SDS011;3820;51.098;13.716;2023-06-19T15:03:48;7.70;;;6.80;;
7557;SDS011;3820;51.098;13.716;2023-06-19T15:06:15;8.48;;;6.35;;
7557;SDS011;3820;51.098;13.716;2023-06-19T15:08:41;7.95;;;6.72;;
7557;SDS011;3820;51.098;13.716;2023-06-19T15:11:08;7.57;;;6.47;;